Jamestown, Missouri
Current Conditions -  °F | °C
As of 9:54 AM on Saturday 25 Oct 2014 (Local Time) from KCOU Reporting Station
Haze Haze  
Wind Chill: 18°   Ceiling: Unl
Heat Index: 18°   Visibility: 6mi
Dew Point: 17°   Wind: 3mph
Humidity: 90%   Direction: 260°W
Pressure: 30.06"   Gusts: NA
Location:  38.77°N, 92.48°W
Report Text: KCOU 251454Z 26003KT 6SM BR CLR 18/17 A3006 RMK AO2 SLP175 T01830167 51012 $
Loading
Personal Weather Stations






























Interactive Weather Map
Tropical Storm Tracking
New forecast layout! Learn more

10-Day Weather Forecast

Advertisements
Track Severe Weather on mobile